Latest Weather Observations for Warwick

IDQ60801

Issued at 3:36 pm EST Wednesday 27 May 2015 (issued every 30 minutes, with the page automatically refreshed every 10 minutes)

About weather observations | Map of weather stations | Latest weather observations for QLD | Other Formats
Station Details ID: 041525 Name: WARWICK Lat: -28.21 Lon: 152.10 Height: 475.4 m
Data from the previous 72 hours. | See also: Recent months at Warwick
Date/Time
EST
Temp
°C
App
Temp
°C
Dew
Point
Rel
Hum
%
Delta-T
°C
Wind Press
QNH
hPa
Press
MSL
hPa
Rain
since 9 am
mm
Dir
 
Spd
km/h
Gust
km/h
Spd
kts
Gust
kts
27/03:30pm 20.2 18.1 8.4 46 6.3 SW 9 13 5 7 1022.0 1021.3 0.0
27/03:00pm 20.3 18.3 8.7 47 6.2 SSW 9 17 5 9 1021.9 1021.2 0.0
27/02:30pm 20.5 18.7 9.5 49 6.0 SW 9 19 5 10 1022.1 1021.5 0.0
27/02:00pm 20.2 17.8 8.6 47 6.2 WSW 11 17 6 9 1022.2 1021.6 0.0
27/01:30pm 20.5 19.2 9.2 48 6.1 W 6 13 3 7 1022.4 1021.8 0.0
27/01:00pm 21.0 19.6 8.7 45 6.6 NW 6 13 3 7 1022.8 1022.2 0.0
27/12:30pm 18.9 17.7 9.4 54 5.1 SE 6 11 3 6 1023.2 1022.6 0.0
27/12:00pm 19.3 18.3 8.8 50 5.6 NNE 4 11 2 6 1024.1 1023.5 0.0
27/11:30am 18.5 17.0 8.4 51 5.3 NNW 6 11 3 6 1024.7 1024.1 0.0
27/11:00am 18.1 17.6 9.3 56 4.7 NNW 2 11 1 6 1025.4 1024.8 0.0
27/10:30am 16.8 17.1 10.9 68 3.2 CALM 0 0 0 0 1025.9 1025.4 0.0
27/10:00am 15.1 14.5 10.4 73 2.5 ESE 4 9 2 5 1026.0 1025.5 0.0
27/09:30am 13.7 13.6 9.3 75 2.3 CALM 0 0 0 0 1026.3 1025.7 0.0
27/09:00am 11.4 11.2 9.0 85 1.2 CALM 0 0 0 0 1026.4 1025.8 0.0
27/08:30am 8.8 8.3 8.0 95 0.4 CALM 0 4 0 2 1026.3 1025.7 0.0
27/08:00am 8.0 7.4 7.4 96 0.3 CALM 0 0 0 0 1026.2 1025.6 0.0
27/07:30am 7.4 6.8 7.2 99 0.1 CALM 0 0 0 0 1025.5 1024.9 0.0
27/07:00am 6.9 6.1 6.7 99 0.1 CALM 0 0 0 0 1025.5 1024.9 0.0
27/06:30am 6.8 6.1 6.8 100 0.0 CALM 0 0 0 0 1025.3 1024.7 0.0
27/06:00am 7.0 6.3 7.0 100 0.0 CALM 0 0 0 0 1025.1 1024.5 0.0
27/05:30am 7.8 6.2 7.8 100 0.0 ENE 6 7 3 4 1024.9 1024.3 0.0
27/05:00am 8.2 7.4 8.0 99 0.1 NE 2 9 1 5 1024.8 1024.2 0.0
27/04:30am 7.9 7.3 7.3 96 0.3 CALM 0 0 0 0 1024.8 1024.2 0.0
27/04:00am 8.1 7.6 7.7 97 0.2 CALM 0 2 0 1 1024.7 1024.1 0.0
27/03:30am 7.9 6.2 7.5 97 0.2 NE 6 9 3 5 1024.8 1024.2 0.0
27/03:00am 6.1 5.1 5.4 95 0.3 CALM 0 0 0 0 1024.8 1024.2 0.0
27/02:30am 7.9 6.0 6.8 93 0.5 NE 6 9 3 5 1025.1 1024.5 0.0
27/02:00am 5.3 3.8 5.1 99 0.1 ESE 2 7 1 4 1025.3 1024.7 0.0
27/01:30am 6.7 4.6 6.5 99 0.1 ENE 7 9 4 5 1025.4 1024.8 0.0
27/01:00am 6.6 5.8 6.4 99 0.1 CALM 0 0 0 0 1025.6 1025.1 0.0
27/12:30am 9.1 8.6 7.7 91 0.7 CALM 0 0 0 0 1025.1 1024.5 0.0
27/12:00am 6.7 5.9 6.3 97 0.2 CALM 0 0 0 0 1025.5 1024.9 0.0
 
Date/Time
EST
Temp
°C
App
Temp
°C
Dew
Point
Rel
Hum
%
Delta-T
°C
Wind Press
QNH
hPa
Press
MSL
hPa
Rain
since 9 am
mm
Dir
 
Spd
km/h
Gust
km/h
Spd
kts
Gust
kts
26/11:30pm 8.3 7.7 7.3 93 0.5 CALM 0 0 0 0 1025.4 1024.8 0.0
26/11:00pm 9.1 7.3 7.9 92 0.6 NE 7 7 4 4 1025.5 1024.9 0.0
26/10:30pm 9.9 8.4 8.5 91 0.7 NE 6 7 3 4 1025.9 1025.4 0.0
26/10:00pm 10.5 9.5 8.7 89 0.9 NE 4 7 2 4 1026.3 1025.7 0.0
26/09:30pm 10.2 9.9 8.8 91 0.7 CALM 0 0 0 0 1026.3 1025.7 0.0
26/09:00pm 10.6 10.5 9.6 93 0.5 CALM 0 0 0 0 1026.4 1025.8 0.0
26/08:30pm 10.6 10.4 9.0 90 0.8 CALM 0 0 0 0 1026.3 1025.7 0.0
26/08:00pm 11.2 11.1 9.4 89 0.9 CALM 0 0 0 0 1026.0 1025.5 0.0
26/07:30pm 11.7 11.6 9.6 87 1.1 CALM 0 0 0 0 1026.3 1025.7 0.0
26/07:00pm 11.8 11.6 9.1 83 1.4 CALM 0 0 0 0 1026.3 1025.7 0.0
26/06:30pm 12.5 12.3 9.0 79 1.8 CALM 0 0 0 0 1025.7 1025.2 0.0
26/06:00pm 13.4 13.3 9.4 77 2.1 CALM 0 0 0 0 1025.8 1025.3 0.0
26/05:30pm 14.7 14.5 9.1 69 2.9 CALM 0 0 0 0 1025.6 1025.1 0.0
26/05:00pm 16.0 16.2 10.6 70 2.9 CALM 0 0 0 0 1025.1 1024.5 0.0
26/04:30pm 16.9 16.8 10.7 67 3.4 SE 2 6 1 3 1025.1 1024.5 0.0
26/04:00pm 17.4 16.3 10.0 62 4.0 SSE 6 9 3 5 1024.9 1024.3 0.0
26/03:30pm 17.9 16.1 9.5 58 4.5 SSE 9 13 5 7 1024.7 1024.1 0.0
26/03:00pm 18.1 16.4 8.4 53 5.1 SW 7 11 4 6 1024.8 1024.2 0.0
26/02:30pm 18.6 17.0 8.6 52 5.3 SSW 7 15 4 8 1025.1 1024.5 0.0
26/02:00pm 18.4 17.8 8.8 53 5.1 SSE 2 11 1 6 1025.2 1024.6 0.0
26/01:30pm 18.6 17.5 8.6 52 5.3 SW 4 11 2 6 1025.7 1025.2 0.0
26/01:00pm 18.6 17.1 8.6 52 5.3 SSW 6 11 3 6 1026.3 1025.7 0.0
26/12:30pm 18.8 17.9 7.6 48 5.8 NNW 2 9 1 5 1026.6 1026.0 0.0
26/12:00pm 18.4 17.3 8.5 52 5.2 WSW 4 11 2 6 1026.9 1026.3 0.0
26/11:30am 17.5 16.8 8.5 55 4.7 NW 2 9 1 5 1027.9 1027.4 0.0
26/11:00am 17.7 17.3 8.3 54 4.9 CALM 0 0 0 0 1028.7 1028.1 0.0
26/10:30am 16.3 15.6 10.1 66 3.3 SSW 4 7 2 4 1029.0 1028.4 0.0
26/10:00am 14.4 13.8 10.5 77 2.1 E 4 7 2 4 1029.1 1028.5 0.0
26/09:30am 12.2 12.1 9.3 82 1.5 CALM 0 0 0 0 1029.2 1028.6 0.0
26/09:00am 11.4 11.2 9.0 85 1.2 CALM 0 0 0 0 1029.4 1028.9 0.2
26/08:30am 10.3 10.0 8.5 89 0.9 CALM 0 0 0 0 1029.5 1029.0 0.2
26/08:00am 9.5 9.0 7.9 90 0.8 CALM 0 0 0 0 1029.2 1028.6 0.2
26/07:30am 7.6 6.8 6.5 93 0.5 CALM 0 0 0 0 1029.2 1028.6 0.2
26/07:00am 6.3 5.3 5.6 95 0.3 CALM 0 0 0 0 1029.1 1028.5 0.2
26/06:30am 5.5 4.5 5.5 100 0.0 CALM 0 0 0 0 1029.2 1028.6 0.2
26/06:00am 6.2 3.9 5.8 97 0.2 ENE 7 11 4 6 1028.8 1028.2 0.2
26/05:30am 6.3 5.4 5.9 97 0.2 CALM 0 0 0 0 1029.1 1028.5 0.2
26/05:00am 5.7 4.6 5.3 97 0.2 CALM 0 0 0 0 1028.7 1028.1 0.2
26/04:30am 5.6 4.5 5.2 97 0.2 CALM 0 6 0 3 1028.4 1027.8 0.2
26/04:00am 6.3 5.4 6.1 99 0.1 CALM 0 0 0 0 1028.2 1027.7 0.2
26/03:30am 6.2 4.0 6.2 100 0.0 ENE 7 9 4 5 1028.9 1028.3 0.2
26/03:00am 6.9 5.0 6.7 99 0.1 ENE 6 7 3 4 1028.9 1028.3 0.2
26/02:30am 6.2 5.3 6.2 100 0.0 CALM 0 0 0 0 1029.0 1028.4 0.0
26/02:00am 7.5 6.9 7.3 99 0.1 CALM 0 0 0 0 1029.3 1028.8 0.0
26/01:30am 9.2 8.9 8.6 96 0.3 CALM 0 0 0 0 1029.2 1028.6 0.0
26/01:00am 7.2 6.5 6.8 97 0.2 CALM 0 0 0 0 1028.9 1028.3 0.0
26/12:30am 8.3 7.9 8.1 99 0.1 CALM 0 0 0 0 1029.2 1028.6 0.0
26/12:00am 8.5 7.7 8.3 99 0.1 NE 2 6 1 3 1029.5 1029.0 0.0
 
Date/Time
EST
Temp
°C
App
Temp
°C
Dew
Point
Rel
Hum
%
Delta-T
°C
Wind Press
QNH
hPa
Press
MSL
hPa
Rain
since 9 am
mm
Dir
 
Spd
km/h
Gust
km/h
Spd
kts
Gust
kts
25/11:30pm 7.8 7.2 7.4 97 0.2 CALM 0 0 0 0 1029.4 1028.9 0.0
25/11:00pm 10.0 9.9 9.4 96 0.3 CALM 0 0 0 0 1029.7 1029.2 0.0
25/10:30pm 9.3 9.1 8.9 97 0.2 CALM 0 0 0 0 1029.9 1029.4 0.0
25/10:00pm 9.9 8.6 9.3 96 0.3 NNE 6 7 3 4 1030.0 1029.5 0.0
25/09:30pm 9.9 8.6 9.3 96 0.3 NNE 6 7 3 4 1030.0 1029.5 0.0
25/09:00pm 10.8 10.7 9.4 91 0.7 CALM 0 0 0 0 1030.4 1029.9 0.0
25/08:30pm 11.2 11.4 10.4 95 0.4 CALM 0 0 0 0 1030.5 1030.0 0.0
25/08:00pm 11.1 11.1 9.9 92 0.6 CALM 0 0 0 0 1030.4 1029.9 0.0
25/07:30pm 12.3 11.3 11.0 92 0.7 S 7 13 4 7 1030.0 1029.5 0.0
25/07:00pm 12.8 12.1 11.3 91 0.8 S 6 11 3 6 1029.6 1029.1 0.0
25/06:30pm 12.3 12.6 10.8 90 0.8 CALM 0 0 0 0 1029.2 1028.6 0.0
25/06:00pm 13.7 12.8 11.3 85 1.3 SSE 7 13 4 7 1029.0 1028.4 0.0
25/05:30pm 14.3 13.0 11.4 83 1.6 SSE 9 17 5 9 1029.1 1028.5 0.0
25/05:00pm 15.4 13.0 11.4 77 2.2 SSE 15 24 8 13 1028.8 1028.2 0.0
25/04:30pm 16.7 13.8 11.0 69 3.1 SSE 17 28 9 15 1028.5 1027.9 0.0
25/04:00pm 17.8 15.2 10.7 63 3.9 SSE 15 24 8 13 1028.9 1028.3 0.0
25/03:30pm 18.3 15.3 10.6 61 4.2 SSE 17 26 9 14 1028.2 1027.7 0.0
25/03:00pm 18.3 15.2 10.2 59 4.4 SSE 17 26 9 14 1027.9 1027.4 0.0
25/02:30pm 19.0 16.6 10.2 56 4.8 SSE 13 24 7 13 1027.9 1027.4 0.0
25/02:00pm 18.8 16.1 10.4 58 4.6 SSE 15 28 8 15 1028.2 1027.7 0.0
25/01:30pm 19.0 16.3 10.2 56 4.8 SE 15 22 8 12 1028.2 1027.7 0.0
25/01:00pm 18.4 16.1 10.3 59 4.4 SSE 13 24 7 13 1029.1 1028.5 0.0
25/12:30pm 18.3 15.7 10.8 61 4.1 SSE 15 26 8 14 1029.3 1028.8 0.0
25/12:00pm 18.3 16.0 10.6 61 4.2 SE 13 32 7 17 1029.9 1029.4 0.0
25/11:30am 17.8 14.7 10.2 61 4.1 SSE 17 24 9 13 1030.4 1029.9 0.0
25/11:00am 17.2 14.9 10.6 65 3.6 SE 13 20 7 11 1030.9 1030.3 0.0
25/10:30am 16.6 14.0 10.7 68 3.2 SSE 15 20 8 11 1031.5 1031.0 0.0
25/10:00am 15.9 12.9 10.7 71 2.8 SE 17 26 9 14 1031.9 1031.4 0.0
25/09:30am 15.2 12.5 10.5 73 2.5 SSE 15 26 8 14 1031.8 1031.3 0.0
25/09:00am 15.2 12.5 10.3 72 2.6 SSE 15 22 8 12 1031.6 1031.1 0.0
25/08:30am 13.9 12.8 10.5 80 1.8 SE 7 15 4 8 1031.2 1030.7 0.0
25/08:00am 12.4 12.0 9.7 83 1.4 E 2 7 1 4 1031.0 1030.4 0.0
25/07:30am 11.8 10.5 9.3 85 1.3 E 6 9 3 5 1030.4 1029.9 0.0
25/07:00am 9.8 9.4 8.4 91 0.7 CALM 0 7 0 4 1030.4 1029.9 0.0
25/06:30am 9.7 7.7 8.7 93 0.5 NE 9 13 5 7 1030.3 1029.8 0.0
25/06:00am 10.8 8.9 9.0 89 0.9 E 9 15 5 8 1030.2 1029.7 0.0
25/05:30am 9.9 9.7 9.1 95 0.4 CALM 0 9 0 5 1030.1 1029.6 0.0
25/05:00am 10.5 10.4 9.5 93 0.5 CALM 0 0 0 0 1030.2 1029.7 0.0
25/04:30am 10.7 10.6 9.5 92 0.6 CALM 0 0 0 0 1030.2 1029.7 0.0
25/04:00am 10.3 10.1 9.1 92 0.6 CALM 0 0 0 0 1029.9 1029.4 0.0
25/03:30am 9.7 9.4 8.7 93 0.5 CALM 0 0 0 0 1030.1 1029.6 0.0
25/03:00am 9.7 9.4 8.5 92 0.6 CALM 0 0 0 0 1030.1 1029.6 0.0
25/02:30am 8.6 8.1 7.8 95 0.4 CALM 0 0 0 0 1030.9 1030.3 0.0
25/02:00am 8.8 7.2 7.8 93 0.5 NNE 6 7 3 4 1030.5 1030.0 0.0
25/01:30am 8.7 7.8 7.7 93 0.5 N 2 7 1 4 1030.8 1030.2 0.0
25/01:00am 8.5 6.8 7.5 93 0.5 NNE 6 7 3 4 1030.5 1030.0 0.0
25/12:30am 9.2 7.5 7.5 89 0.8 NE 6 9 3 5 1030.5 1030.0 0.0
25/12:00am 8.9 8.3 7.4 90 0.7 CALM 0 0 0 0 1030.7 1030.1 0.0
 
Date/Time
EST
Temp
°C
App
Temp
°C
Dew
Point
Rel
Hum
%
Delta-T
°C
Wind Press
QNH
hPa
Press
MSL
hPa
Rain
since 9 am
mm
Dir
 
Spd
km/h
Gust
km/h
Spd
kts
Gust
kts
24/11:30pm 9.2 8.7 7.8 91 0.7 CALM 0 6 0 3 1030.7 1030.1 0.0
24/11:00pm 9.6 7.8 7.8 88 0.9 NNE 7 7 4 4 1031.1 1030.5 0.0
24/10:30pm 9.9 9.5 8.3 90 0.8 CALM 0 0 0 0 1031.2 1030.7 0.0
24/10:00pm 8.6 8.1 8.0 96 0.3 CALM 0 0 0 0 1031.2 1030.7 0.0
24/09:30pm 9.6 9.2 8.4 92 0.6 CALM 0 6 0 3 1031.2 1030.7 0.0
24/09:00pm 10.6 10.0 8.8 89 0.9 E 2 6 1 3 1031.0 1030.4 0.0
24/08:30pm 10.2 8.6 8.2 87 1.0 NE 6 7 3 4 1031.0 1030.4 0.0
24/08:00pm 10.4 9.9 8.0 85 1.2 CALM 0 0 0 0 1030.7 1030.1 0.0
24/07:30pm 11.1 10.8 8.7 85 1.2 CALM 0 0 0 0 1030.7 1030.1 0.0
24/07:00pm 11.3 10.9 8.1 81 1.6 CALM 0 0 0 0 1030.3 1029.8 0.0
24/06:30pm 12.3 10.9 9.4 82 1.5 ENE 7 11 4 6 1029.9 1029.4 0.0
24/06:00pm 12.3 11.4 7.9 74 2.2 NE 2 7 1 4 1029.5 1029.0 0.0
24/05:30pm 13.8 12.2 8.7 71 2.6 SE 7 11 4 6 1029.3 1028.8 0.0
24/05:00pm 15.5 13.5 8.8 64 3.5 SE 9 15 5 8 1029.2 1028.6 0.0
24/04:30pm 17.0 14.6 8.8 58 4.3 SE 11 19 6 10 1028.8 1028.2 0.0
24/04:00pm 17.8 15.0 8.7 55 4.8 SE 13 20 7 11 1028.4 1027.8 0.0

Other Formats:

Comma delimited format used in spreadsheet applications
http://www.bom.gov.au/fwo/IDQ60801/IDQ60801.94555.axf

JavaScript Object Notation format (JSON) in row-major order
http://www.bom.gov.au/fwo/IDQ60801/IDQ60801.94555.json